Fort Dodge Regional Airport
KFOD : now visible

Airfield :











YOU CAN JOIN US ON...

 
LOGIN :

Register | Disclaimer

   EN    FR    IT 

 









Legend :    VFR   Marginal VFR   IFR   Intensive IFR   Very Intensive IFR
Visi :
Ceiling :
>= 8 km
>= 3000ft
5 to 8 km
1000 to 3000 ft
1500m to 5 km
500 to 1000 ft
800 to 1500m
200 to 500 ft
< 800m
< 200 ft
Symbols :   Thunderstorms  Fog  Heavy snow  Heavy precipitations  Wind > 20 kt







- Airport Elevation : 1156 ft
- IATA code : FOD


KFOD - Fort Dodge Regional

CURRENT METAR :
  • 191556Z AUTO 01008G18KT 10SM CLR 12/00 A3008 RMK AO2 SLP216 T01220000

EXPIRED METARs :
  • 191456Z AUTO VRB06KT 10SM CLR 11/04 A3007 RMK AO2 SLP216 T01110039 51007
  • 191356Z AUTO 34006KT 10SM CLR 07/03 A3007 RMK AO2 SLP215 T00720033

TAF KFOD
Valid from the 19 at 12:00 until the 20 at 12:00 UTC


191120Z 1912/2012 34006KT P6SM SKC
FM200100 VRB04KT P6SM SKC
KZMP FIR / North America



MET'MAP, your aeronautical weather chart ! - Copyright ORBIFLY December 2007 - Disclaimer

ORBIFLY MET'MAP TEAM :

Programming & Development : Alexandra Zaïnal
Concept & Development : Baudouin d'Aumeries
Co-Development & Prog : Marc-Olivier Méhu
Technical & hardware support : Manuel Goepfert

Contact : metmap@orbifly.com




SOURCES & CREDITS :

   NOAA       Earth
Advisory